createdAt,value
2023-12-22T00:02:36.629Z,96.09
2023-12-22T00:05:39.464Z,95.64
2023-12-22T00:08:42.556Z,96.84
2023-12-22T00:11:45.157Z,96.38
2023-12-22T00:14:47.567Z,97.14
2023-12-22T00:17:50.664Z,94.74
2023-12-22T00:20:53.417Z,93.44
2023-12-22T00:23:56.168Z,92.22
2023-12-22T00:26:58.552Z,91.29
2023-12-22T00:30:01.208Z,91.83
2023-12-22T00:33:03.937Z,91.76
2023-12-22T00:36:06.863Z,90.42
2023-12-22T00:39:09.871Z,91.57
2023-12-22T00:42:12.698Z,91.00
2023-12-22T00:45:15.174Z,91.89
2023-12-22T00:48:18.001Z,93.47
2023-12-22T00:51:20.467Z,94.23
2023-12-22T00:54:23.178Z,95.29
2023-12-22T00:57:25.493Z,94.92
2023-12-22T01:00:28.284Z,95.99
2023-12-22T01:03:30.829Z,97.43
2023-12-22T01:06:37.850Z,98.35
2023-12-22T01:09:40.438Z,96.74
2023-12-22T01:12:43.256Z,96.35
2023-12-22T01:15:45.657Z,96.49
2023-12-22T01:18:48.738Z,96.96
2023-12-22T01:21:53.150Z,96.74
2023-12-22T01:24:56.030Z,96.87
2023-12-22T01:27:58.482Z,96.98
2023-12-22T01:31:01.270Z,97.42
2023-12-22T01:34:03.792Z,97.82
2023-12-22T01:37:06.518Z,97.57
2023-12-22T01:40:09.555Z,97.02
2023-12-22T01:43:12.231Z,96.91
2023-12-22T01:46:14.737Z,97.15
2023-12-22T01:49:18.074Z,97.36
2023-12-22T01:52:20.717Z,97.15
2023-12-22T01:55:23.797Z,95.18
2023-12-22T01:58:28.521Z,95.66
2023-12-22T02:01:33.180Z,94.81
2023-12-22T02:04:36.166Z,94.18
2023-12-22T02:07:43.192Z,93.49
2023-12-22T02:10:46.327Z,91.71
2023-12-22T02:13:49.222Z,92.01
2023-12-22T02:17:17.035Z,91.04
2023-12-22T02:20:20.845Z,90.60
2023-12-22T02:23:23.545Z,89.93
2023-12-22T02:26:45.660Z,90.24
2023-12-22T02:29:53.262Z,88.47
2023-12-22T02:33:02.304Z,88.23
2023-12-22T02:36:07.945Z,87.90
2023-12-22T02:39:11.974Z,89.29
2023-12-22T02:42:15.335Z,89.71
2023-12-22T02:45:19.879Z,90.55
2023-12-22T02:48:22.859Z,91.52
2023-12-22T02:51:25.280Z,92.33
2023-12-22T02:54:30.967Z,92.87
2023-12-22T02:57:33.558Z,93.67
2023-12-22T03:00:36.305Z,93.96
2023-12-22T03:03:38.786Z,94.07
2023-12-22T03:06:41.425Z,94.32
2023-12-22T03:09:44.305Z,94.24
2023-12-22T03:12:47.083Z,93.56
2023-12-22T03:15:49.542Z,93.23
2023-12-22T03:18:52.272Z,92.87
2023-12-22T03:21:54.720Z,93.18
2023-12-22T03:24:57.406Z,92.81
2023-12-22T03:27:59.852Z,92.23
2023-12-22T03:31:02.669Z,92.50
2023-12-22T03:34:05.073Z,92.29
2023-12-22T03:37:07.867Z,92.33
2023-12-22T03:40:11.038Z,90.71
2023-12-22T03:43:13.887Z,90.07
2023-12-22T03:46:16.331Z,88.43
2023-12-22T03:49:20.883Z,87.46
2023-12-22T03:52:23.365Z,85.26
2023-12-22T03:55:26.147Z,83.09
2023-12-22T03:58:31.048Z,79.76
2023-12-22T04:01:33.900Z,79.57
2023-12-22T04:04:40.051Z,78.69
2023-12-22T04:07:42.605Z,77.46
2023-12-22T04:10:45.737Z,76.87
2023-12-22T04:13:48.467Z,77.08
2023-12-22T04:16:53.802Z,75.87
2023-12-22T04:19:56.403Z,75.82
2023-12-22T04:22:59.552Z,75.50
2023-12-22T04:26:03.496Z,74.81
2023-12-22T04:29:06.244Z,74.78
2023-12-22T04:32:08.675Z,75.38
2023-12-22T04:35:11.525Z,75.27
2023-12-22T04:38:14.091Z,75.71
2023-12-22T04:41:16.758Z,77.30
2023-12-22T04:44:19.148Z,78.76
2023-12-22T04:47:21.992Z,79.44
2023-12-22T04:50:24.498Z,80.61
2023-12-22T04:53:27.273Z,80.86
2023-12-22T04:56:29.661Z,80.57
2023-12-22T04:59:32.613Z,80.59
2023-12-22T05:02:35.085Z,80.96
2023-12-22T05:05:37.737Z,79.60
2023-12-22T05:08:40.105Z,79.31
2023-12-22T05:11:42.868Z,80.19
2023-12-22T05:14:45.842Z,79.06
2023-12-22T05:17:48.932Z,78.75
2023-12-22T05:20:52.803Z,78.35
2023-12-22T05:23:55.711Z,78.50
2023-12-22T05:26:58.014Z,77.58
2023-12-22T05:30:02.970Z,77.68
2023-12-22T05:33:05.436Z,77.80
2023-12-22T05:36:08.326Z,77.70
2023-12-22T05:39:11.581Z,77.52
2023-12-22T05:42:14.377Z,76.94
2023-12-22T05:45:16.830Z,77.13
2023-12-22T05:48:23.053Z,76.65
2023-12-22T05:51:25.530Z,75.79
2023-12-22T05:54:28.293Z,74.99
2023-12-22T05:57:30.714Z,75.89
2023-12-22T06:00:33.473Z,74.45
2023-12-22T06:03:36.806Z,73.00
2023-12-22T06:06:39.664Z,71.99
2023-12-22T06:09:42.339Z,70.77
2023-12-22T06:12:44.916Z,70.19
2023-12-22T06:15:47.672Z,70.17
2023-12-22T06:18:50.228Z,69.50
2023-12-22T06:21:52.988Z,69.24
2023-12-22T06:24:55.474Z,68.95
2023-12-22T06:27:58.202Z,68.78
2023-12-22T06:31:00.542Z,67.36
2023-12-22T06:34:04.148Z,67.26
2023-12-22T06:37:08.797Z,66.67
2023-12-22T06:40:11.930Z,65.95
2023-12-22T06:43:15.677Z,66.02
2023-12-22T06:46:19.686Z,66.01
2023-12-22T06:49:22.185Z,66.06
2023-12-22T06:52:25.001Z,64.26
2023-12-22T06:55:28.274Z,64.63
2023-12-22T06:58:32.986Z,63.37
2023-12-22T07:01:37.088Z,62.93
2023-12-22T07:04:40.620Z,63.09
2023-12-22T07:07:58.084Z,62.92
2023-12-22T07:11:01.014Z,62.49
2023-12-22T07:14:03.570Z,63.87
2023-12-22T07:17:06.287Z,62.91
2023-12-22T07:20:10.356Z,63.17
2023-12-22T07:23:13.667Z,62.32
2023-12-22T07:26:16.575Z,61.33
2023-12-22T07:29:24.914Z,61.93
2023-12-22T07:32:28.341Z,61.85
2023-12-22T07:35:31.952Z,60.95
2023-12-22T07:38:34.503Z,61.35
2023-12-22T07:41:37.461Z,62.06
2023-12-22T07:44:41.558Z,61.76
2023-12-22T07:47:44.610Z,61.80
2023-12-22T07:50:47.254Z,61.97
2023-12-22T07:53:50.115Z,61.41
2023-12-22T07:56:52.587Z,61.47
2023-12-22T07:59:55.284Z,62.61
2023-12-22T08:02:57.693Z,61.29
2023-12-22T08:06:00.756Z,62.38
2023-12-22T08:09:03.798Z,61.70
2023-12-22T08:12:07.316Z,61.79
2023-12-22T08:15:22.039Z,61.62
2023-12-22T08:18:29.219Z,61.79
2023-12-22T08:21:39.425Z,61.76
2023-12-22T08:24:49.177Z,61.17
2023-12-22T08:27:51.886Z,60.27
2023-12-22T08:30:54.677Z,60.84
2023-12-22T08:33:57.331Z,60.10
2023-12-22T08:37:02.066Z,59.95
2023-12-22T08:40:07.191Z,60.37
2023-12-22T08:43:12.378Z,59.61
2023-12-22T08:46:15.378Z,59.03
2023-12-22T08:49:18.212Z,59.56
2023-12-22T08:52:20.845Z,59.34
2023-12-22T08:55:23.764Z,60.45
2023-12-22T08:58:26.308Z,60.86
2023-12-22T09:01:29.145Z,60.24
2023-12-22T09:04:31.865Z,60.89
2023-12-22T09:07:34.876Z,61.46
2023-12-22T09:10:37.708Z,61.81
2023-12-22T09:13:40.693Z,62.30
2023-12-22T09:16:45.581Z,61.83
2023-12-22T09:19:48.367Z,61.93
2023-12-22T09:22:51.168Z,62.53
2023-12-22T09:25:54.428Z,63.26
2023-12-22T09:28:56.979Z,64.30
2023-12-22T09:32:00.260Z,63.52
2023-12-22T09:35:03.117Z,62.50
2023-12-22T09:38:05.977Z,62.06
2023-12-22T09:41:08.551Z,60.99
2023-12-22T09:44:12.569Z,60.39
2023-12-22T09:47:17.269Z,60.94
2023-12-22T09:50:21.051Z,61.53
2023-12-22T09:53:25.467Z,61.79
2023-12-22T09:56:28.686Z,62.01
2023-12-22T09:59:32.681Z,61.93
2023-12-22T10:02:36.975Z,61.57
2023-12-22T10:05:42.962Z,60.90
2023-12-22T10:08:48.731Z,60.44
2023-12-22T10:11:54.485Z,59.99
2023-12-22T10:14:57.987Z,60.02
2023-12-22T10:18:00.828Z,59.72
2023-12-22T10:21:03.414Z,59.81
2023-12-22T10:24:06.339Z,60.54
2023-12-22T10:27:09.303Z,62.04
2023-12-22T10:30:12.469Z,62.55
2023-12-22T10:33:15.107Z,63.21
2023-12-22T10:36:19.233Z,62.86
2023-12-22T10:39:24.745Z,61.82
2023-12-22T10:42:27.567Z,61.53
2023-12-22T10:45:32.090Z,62.21
2023-12-22T10:48:36.139Z,61.45
2023-12-22T10:51:38.673Z,61.51
2023-12-22T10:54:41.762Z,61.49
2023-12-22T10:57:47.892Z,61.77
2023-12-22T11:00:53.119Z,61.39
2023-12-22T11:04:05.691Z,61.59
2023-12-22T11:07:11.650Z,61.46
2023-12-22T11:10:15.788Z,61.39
2023-12-22T11:13:20.486Z,61.34
2023-12-22T11:16:25.031Z,60.86
2023-12-22T11:19:32.155Z,60.62
2023-12-22T11:22:37.085Z,60.74
2023-12-22T11:25:41.104Z,60.90
2023-12-22T11:28:45.475Z,60.41
2023-12-22T11:31:50.233Z,60.76
2023-12-22T11:34:54.077Z,61.00
2023-12-22T11:37:59.469Z,60.96
2023-12-22T11:41:04.022Z,60.58
2023-12-22T11:44:07.427Z,60.74
2023-12-22T11:47:12.180Z,60.88
2023-12-22T11:50:30.169Z,59.20
2023-12-22T11:53:34.058Z,59.46
2023-12-22T11:56:37.689Z,60.08
2023-12-22T11:59:40.158Z,60.16
2023-12-22T12:02:43.146Z,59.73
2023-12-22T12:05:46.205Z,60.12
2023-12-22T12:08:50.207Z,59.63
2023-12-22T12:11:52.978Z,59.87
2023-12-22T12:15:01.421Z,59.02
2023-12-22T12:18:05.364Z,59.67
2023-12-22T12:21:12.408Z,59.21
2023-12-22T12:24:15.205Z,59.74
2023-12-22T12:27:21.355Z,59.76
2023-12-22T12:30:25.322Z,59.95
2023-12-22T12:33:28.643Z,60.28
2023-12-22T12:36:33.380Z,60.81
2023-12-22T12:39:36.497Z,60.96
2023-12-22T12:42:39.658Z,61.06
2023-12-22T12:45:43.046Z,62.30
2023-12-22T12:48:45.944Z,63.78
2023-12-22T12:51:50.210Z,67.55
2023-12-22T12:54:53.407Z,71.72
2023-12-22T12:57:57.253Z,73.83
2023-12-22T13:01:09.027Z,74.37
2023-12-22T13:04:13.955Z,75.05
2023-12-22T13:07:26.054Z,75.84
2023-12-22T13:10:30.781Z,76.52
2023-12-22T13:13:42.985Z,75.92
2023-12-22T13:16:45.918Z,77.46
2023-12-22T13:19:50.041Z,78.00
2023-12-22T13:22:52.553Z,79.82
2023-12-22T13:25:55.400Z,80.65
2023-12-22T13:29:00.390Z,81.26
2023-12-22T13:32:03.528Z,81.87
2023-12-22T13:35:06.476Z,81.23
2023-12-22T13:38:11.108Z,82.32
2023-12-22T13:41:14.281Z,80.42
2023-12-22T13:44:17.269Z,80.96
2023-12-22T13:47:20.624Z,80.37
2023-12-22T13:50:26.472Z,78.86
2023-12-22T13:53:29.148Z,78.04
2023-12-22T13:56:41.333Z,77.80
2023-12-22T13:59:44.209Z,75.88
2023-12-22T14:02:47.697Z,73.61
2023-12-22T14:05:50.839Z,71.21
2023-12-22T14:08:54.400Z,71.03
2023-12-22T14:12:02.268Z,69.16
2023-12-22T14:15:09.205Z,68.72
2023-12-22T14:18:12.771Z,72.30
2023-12-22T14:21:16.261Z,78.59
2023-12-22T14:24:19.772Z,83.97
2023-12-22T14:27:24.716Z,87.41
2023-12-22T14:30:27.401Z,87.41
2023-12-22T14:33:30.021Z,88.53
2023-12-22T14:36:32.732Z,88.84
2023-12-22T14:39:36.533Z,88.18
2023-12-22T14:42:40.125Z,87.51
2023-12-22T14:45:42.869Z,86.52
2023-12-22T14:48:45.690Z,85.54
2023-12-22T14:51:54.870Z,84.28
2023-12-22T14:54:57.757Z,83.44
2023-12-22T14:58:00.233Z,83.20
2023-12-22T15:01:03.202Z,82.95
2023-12-22T15:04:06.988Z,82.26
2023-12-22T15:07:09.878Z,82.36
2023-12-22T15:10:12.437Z,81.25
2023-12-22T15:13:15.142Z,80.92
2023-12-22T15:16:17.622Z,79.16
2023-12-22T15:19:21.295Z,74.53
2023-12-22T15:22:24.270Z,73.79
2023-12-22T15:25:27.415Z,71.87
2023-12-22T15:28:30.130Z,71.19
2023-12-22T15:31:36.666Z,71.23
2023-12-22T15:34:42.742Z,71.57
2023-12-22T15:37:45.831Z,71.50
2023-12-22T15:40:48.340Z,70.97
2023-12-22T15:43:51.186Z,72.62
2023-12-22T15:46:53.689Z,73.63
2023-12-22T15:49:56.636Z,74.74
2023-12-22T15:52:59.100Z,74.32
2023-12-22T15:56:10.417Z,74.27
2023-12-22T15:59:13.300Z,74.27
2023-12-22T16:02:17.102Z,73.85
2023-12-22T16:05:20.042Z,74.60
2023-12-22T16:08:22.479Z,75.35
2023-12-22T16:11:25.262Z,75.67
2023-12-22T16:14:27.774Z,76.39
2023-12-22T16:17:30.611Z,76.59
2023-12-22T16:20:33.097Z,76.76
2023-12-22T16:23:35.759Z,76.30
2023-12-22T16:26:38.278Z,76.04
2023-12-22T16:29:44.038Z,76.52
2023-12-22T16:32:46.828Z,76.73
2023-12-22T16:35:49.793Z,76.91
2023-12-22T16:38:52.745Z,77.20
2023-12-22T16:41:55.574Z,77.48
2023-12-22T16:45:00.340Z,77.44
2023-12-22T16:48:03.931Z,78.01
2023-12-22T16:51:06.569Z,77.64
2023-12-22T16:54:09.367Z,77.48
2023-12-22T16:57:11.859Z,77.30
2023-12-22T17:00:16.013Z,76.79
2023-12-22T17:03:18.943Z,76.60
2023-12-22T17:06:21.999Z,75.19
2023-12-22T17:09:25.931Z,74.56
2023-12-22T17:12:28.910Z,75.60
2023-12-22T17:15:31.346Z,75.79
2023-12-22T17:18:34.125Z,75.99
2023-12-22T17:21:38.242Z,75.51
2023-12-22T17:24:44.854Z,76.29
2023-12-22T17:27:47.604Z,77.10
2023-12-22T17:30:52.257Z,77.16
2023-12-22T17:33:54.756Z,78.25
2023-12-22T17:36:57.519Z,80.05
2023-12-22T17:40:00.002Z,81.15
2023-12-22T17:43:02.992Z,82.90
2023-12-22T17:46:05.416Z,84.19
2023-12-22T17:49:08.295Z,86.11
2023-12-22T17:52:10.835Z,86.92
2023-12-22T17:55:13.765Z,87.23
2023-12-22T17:58:16.307Z,88.68
2023-12-22T18:01:20.206Z,89.49
2023-12-22T18:04:23.127Z,89.72
2023-12-22T18:07:25.643Z,90.95
2023-12-22T18:10:28.525Z,89.65
2023-12-22T18:13:32.894Z,89.22
2023-12-22T18:16:42.862Z,88.69
2023-12-22T18:19:45.563Z,88.93
2023-12-22T18:22:48.448Z,88.42
2023-12-22T18:25:51.027Z,88.42
2023-12-22T18:28:54.082Z,88.56
2023-12-22T18:31:57.335Z,89.26
2023-12-22T18:35:00.265Z,89.80
2023-12-22T18:38:03.122Z,90.36
2023-12-22T18:41:05.991Z,92.28
2023-12-22T18:44:08.742Z,92.78
2023-12-22T18:47:11.827Z,94.60
2023-12-22T18:50:14.472Z,94.64
2023-12-22T18:53:17.954Z,95.57
2023-12-22T18:56:26.311Z,95.27
2023-12-22T18:59:29.104Z,95.45
2023-12-22T19:02:46.307Z,95.63
2023-12-22T19:05:55.102Z,95.45
2023-12-22T19:08:58.741Z,95.91
2023-12-22T19:12:02.048Z,95.40
2023-12-22T19:15:05.492Z,94.84
2023-12-22T19:18:08.520Z,94.76
2023-12-22T19:21:15.061Z,94.53
2023-12-22T19:24:17.734Z,95.08
2023-12-22T19:27:20.475Z,94.59
2023-12-22T19:30:23.247Z,95.82
2023-12-22T19:33:27.449Z,95.39
2023-12-22T19:36:30.315Z,95.65
2023-12-22T19:39:32.821Z,94.88
2023-12-22T19:42:35.688Z,95.31
2023-12-22T19:45:38.247Z,94.87
2023-12-22T19:48:40.994Z,94.89
2023-12-22T19:51:44.048Z,93.87
2023-12-22T19:54:46.908Z,94.06
2023-12-22T19:57:49.914Z,93.08
2023-12-22T20:00:52.874Z,92.42
2023-12-22T20:03:56.642Z,92.14
2023-12-22T20:06:59.534Z,92.35
2023-12-22T20:10:04.909Z,91.38
2023-12-22T20:13:07.346Z,90.60
2023-12-22T20:16:13.417Z,91.00
2023-12-22T20:19:15.926Z,89.89
2023-12-22T20:22:18.841Z,89.63
2023-12-22T20:25:21.669Z,89.55
2023-12-22T20:28:26.187Z,88.48
2023-12-22T20:31:28.646Z,87.92
2023-12-22T20:34:31.587Z,88.23
2023-12-22T20:37:34.204Z,87.83
2023-12-22T20:40:37.015Z,88.06
2023-12-22T20:43:39.684Z,88.12
2023-12-22T20:46:42.507Z,88.33
2023-12-22T20:49:44.917Z,87.89
2023-12-22T20:52:51.851Z,87.73
2023-12-22T20:55:54.546Z,87.92
2023-12-22T20:58:58.502Z,87.52
2023-12-22T21:02:01.319Z,87.89
2023-12-22T21:05:04.346Z,88.15
2023-12-22T21:08:07.932Z,88.95
2023-12-22T21:11:11.978Z,89.65
2023-12-22T21:14:14.686Z,89.46
2023-12-22T21:17:24.665Z,90.20
2023-12-22T21:20:27.274Z,90.81
2023-12-22T21:23:30.505Z,90.87
2023-12-22T21:26:33.190Z,91.85
2023-12-22T21:29:38.237Z,91.80
2023-12-22T21:32:40.874Z,92.32
2023-12-22T21:35:44.630Z,92.48
2023-12-22T21:38:48.084Z,93.76
2023-12-22T21:41:52.823Z,93.63
2023-12-22T21:44:56.398Z,93.04
2023-12-22T21:47:59.621Z,94.29
2023-12-22T21:51:06.961Z,94.48
2023-12-22T21:54:12.082Z,94.80
2023-12-22T21:57:15.646Z,94.96
2023-12-22T22:00:18.889Z,95.62
2023-12-22T22:03:22.372Z,95.35
2023-12-22T22:06:25.476Z,94.87
2023-12-22T22:09:28.750Z,94.82
2023-12-22T22:12:34.492Z,94.35
2023-12-22T22:15:38.132Z,94.46
2023-12-22T22:18:41.596Z,95.38
2023-12-22T22:21:44.459Z,96.18
2023-12-22T22:24:46.835Z,95.40
2023-12-22T22:27:49.802Z,95.63
2023-12-22T22:30:52.810Z,96.70
2023-12-22T22:33:56.209Z,96.64
2023-12-22T22:36:58.895Z,97.08
2023-12-22T22:40:01.578Z,97.59
2023-12-22T22:43:04.131Z,97.94
2023-12-22T22:46:12.311Z,97.86
2023-12-22T22:49:16.854Z,96.06
2023-12-22T22:52:19.595Z,96.33
2023-12-22T22:55:22.102Z,96.61
2023-12-22T22:58:25.045Z,96.37
2023-12-22T23:01:28.464Z,96.05
2023-12-22T23:04:31.529Z,95.47
2023-12-22T23:07:35.295Z,95.07
2023-12-22T23:10:38.683Z,96.25
2023-12-22T23:13:41.428Z,96.03
2023-12-22T23:16:46.761Z,95.52
2023-12-22T23:19:49.466Z,95.31
2023-12-22T23:22:52.234Z,95.72
2023-12-22T23:25:56.012Z,96.15
2023-12-22T23:28:59.026Z,96.54
2023-12-22T23:32:01.488Z,96.35
2023-12-22T23:35:04.571Z,95.99
2023-12-22T23:38:08.518Z,96.20
2023-12-22T23:41:11.358Z,96.20
2023-12-22T23:44:13.916Z,96.41
2023-12-22T23:47:16.818Z,96.35
2023-12-22T23:50:19.368Z,96.29
2023-12-22T23:53:22.141Z,96.71
2023-12-22T23:56:26.074Z,96.88
2023-12-22T23:59:29.674Z,96.65
